Airfield :
LOGIN :

Register | Disclaimer

   EN    FR    IT 

 










Legend :    VFR   Marginal VFR   IFR   Intensive IFR   Very Intensive IFR
Visi :
Ceiling :
>= 8 km
>= 3000ft
5 to 8 km
1000 to 3000 ft
1500m to 5 km
500 to 1000 ft
800 to 1500m
200 to 500 ft
< 800m
< 200 ft
Symbols :   Thunderstorms  Fog  Heavy snow  Heavy precipitations  Wind > 20 kt
SIGMETs :     Misc.  Thunderstorms  Icing  Turbulence  Mountain Waves  Volcanic Ashes







- Airport Elevation : 863 ft
- IATA code : ZAZ


LEZG - Zaragoza Aragon

CURRENT METAR :
  • 191330Z 29009KT 260V330 CAVOK 15/M03 Q1021

EXPIRED METARs :
  • 191300Z 29010KT 260V330 CAVOK 14/M03 Q1022
  • 191230Z 30009KT 250V340 CAVOK 14/M02 Q1022
  • 191200Z 30011KT 260V330 CAVOK 14/M03 Q1022
  • 191130Z 29006KT 250V340 CAVOK 13/00 Q1023
  • 191100Z 31006KT 280V350 CAVOK 12/M01 Q1023

TAF COR TAF LEZG
Valid from the 19 at 12:00 until the 20 at 12:00 UTC


191112Z 1912/2012 29010KT 9999 FEW040 TX17/1914Z TN03/2006Z
TEMPO 2006/2010 02006KT
No reported NOTAMs for that airfield.



MET'MAP, your aeronautical weather chart ! - Copyright ORBIFLY December 2007 - Disclaimer

ORBIFLY MET'MAP TEAM :

Programming & Development : Alexandra Zaïnal
Concept & Development : Baudouin d'Aumeries
Co-Development & Prog : Marc-Olivier Méhu
Technical & hardware support : Manuel Goepfert

Contact : metmap@orbifly.com




SOURCES & CREDITS :

   NOAA